Time;durP1;ratioP1;P1;durP2;ratioP2;P2;SDS_P1;SDS_P2;PMS_P1;PMS_P2;Temp;Humidity;BMP_temperature;BMP_pressure;BME280_temperature;BME280_humidity;BME280_pressure;Samples;Min_cycle;Max_cycle;Signal;HPM_P1;HPM_P2
2022/04/11 00:01:23;;;;;;;1.77;0.43;;;;;;;15.45;61.52;100623.84;5052746;28;20033;-77
2022/04/11 00:03:49;;;;;;;1.00;0.45;;;;;;;15.53;61.60;100637.22;5029126;28;20479;-78
2022/04/11 00:06:14;;;;;;;1.45;0.80;;;;;;;15.52;61.30;100647.72;5032837;28;20076;-79
2022/04/11 00:08:40;;;;;;;0.60;0.55;;;;;;;15.50;62.13;100646.78;5015124;28;20045;-78
2022/04/11 00:11:06;;;;;;;1.20;0.70;;;;;;;15.46;61.70;100645.78;5032584;28;20079;-78
2022/04/11 00:13:32;;;;;;;1.77;0.60;;;;;;;15.55;61.84;100655.69;5047040;28;20029;-78
2022/04/11 00:15:58;;;;;;;0.80;0.40;;;;;;;15.54;62.06;100640.78;5052476;28;20477;-78
2022/04/11 00:18:23;;;;;;;0.50;0.50;;;;;;;15.54;62.27;100640.78;5052631;28;20024;-78
2022/04/11 00:20:50;;;;;;;0.88;0.40;;;;;;;15.47;61.89;100632.69;5052416;28;20052;-79
2022/04/11 00:23:16;;;;;;;0.50;0.40;;;;;;;15.48;61.10;100631.81;5052235;28;20035;-79
2022/04/11 00:25:42;;;;;;;0.75;0.30;;;;;;;15.47;61.23;100623.88;5046797;28;20033;-79
2022/04/11 00:28:07;;;;;;;0.85;0.50;;;;;;;15.43;61.51;100632.50;5032510;28;20040;-78
2022/04/11 00:30:33;;;;;;;1.33;0.60;;;;;;;15.39;61.81;100626.28;5032491;28;20457;-80
2022/04/11 00:32:59;;;;;;;0.68;0.47;;;;;;;15.34;61.52;100625.22;5032315;28;20041;-79
2022/04/11 00:35:24;;;;;;;0.50;0.47;;;;;;;15.40;61.79;100635.06;5032137;28;20026;-79
2022/04/11 00:37:50;;;;;;;2.17;0.52;;;;;;;15.33;62.29;100628.69;5045691;28;20407;-79
2022/04/11 00:40:16;;;;;;;0.88;0.50;;;;;;;15.32;61.27;100624.25;5051445;28;20457;-80
2022/04/11 00:42:41;;;;;;;1.02;0.50;;;;;;;15.33;61.85;100639.22;5049735;28;20040;-80
2022/04/11 00:45:07;;;;;;;2.13;0.65;;;;;;;15.30;61.32;100643.47;5052104;28;20063;-79
2022/04/11 00:47:33;;;;;;;0.88;0.30;;;;;;;15.30;61.61;100646.13;5052187;28;20029;-79
2022/04/11 00:50:04;;;;;;;0.70;0.50;;;;;;;15.27;62.30;100657.44;5052061;28;20071;-80
2022/04/11 00:52:31;;;;;;;1.52;0.40;;;;;;;15.31;62.15;100661.06;5052025;28;20053;-80
2022/04/11 00:54:58;;;;;;;1.70;0.40;;;;;;;15.35;61.74;100648.06;5051888;28;20103;-80
2022/04/11 00:57:24;;;;;;;0.93;0.30;;;;;;;15.20;62.60;100647.56;5032840;28;20021;-79
2022/04/11 00:59:49;;;;;;;0.55;0.35;;;;;;;15.11;62.10;100656.00;5031918;28;20394;-80
2022/04/11 01:02:15;;;;;;;1.58;0.60;;;;;;;15.09;62.23;100651.56;5006334;28;20040;-80
2022/04/11 01:04:41;;;;;;;0.98;0.32;;;;;;;15.07;61.85;100644.53;5050566;28;20032;-80
2022/04/11 01:07:08;;;;;;;0.63;0.45;;;;;;;15.14;61.75;100644.72;5051791;28;20039;-80
2022/04/11 01:09:34;;;;;;;1.10;0.35;;;;;;;15.09;61.77;100662.06;5052067;28;20051;-80
2022/04/11 01:12:00;;;;;;;;;;;;;;;15.03;62.67;100655.78;5050334;28;20491;-79
2022/04/11 01:14:26;;;;;;;0.40;0.32;;;;;;;15.06;61.41;100653.22;5051274;28;20010;-79
2022/04/11 01:16:52;;;;;;;1.45;0.45;;;;;;;15.02;62.17;100648.72;5050866;28;20029;-80
2022/04/11 01:19:19;;;;;;;0.20;0.20;;;;;;;14.95;62.57;100651.09;5033652;28;20486;-79
2022/04/11 01:21:48;;;;;;;1.10;0.43;;;;;;;14.88;62.15;100642.13;5033575;28;20498;-79
2022/04/11 01:24:18;;;;;;;0.20;0.20;;;;;;;14.90;62.12;100652.66;5051825;28;20033;-79
2022/04/11 01:26:44;;;;;;;0.40;0.40;;;;;;;14.91;62.30;100649.22;5032780;28;20078;-80
2022/04/11 01:29:10;;;;;;;;;;;;;;;15.02;62.05;100639.94;5051847;28;20037;-79
2022/04/11 01:31:35;;;;;;;1.33;0.35;;;;;;;14.89;61.83;100654.41;5051458;28;19912;-80
2022/04/11 01:34:01;;;;;;;1.10;0.30;;;;;;;14.78;61.95;100646.16;5033354;28;20398;-80
2022/04/11 01:36:27;;;;;;;0.88;0.30;;;;;;;14.76;62.07;100639.06;5051289;28;20094;-80
2022/04/11 01:38:52;;;;;;;0.60;0.20;;;;;;;14.75;61.75;100634.63;5033725;28;20121;-79
2022/04/11 01:41:19;;;;;;;1.10;0.43;;;;;;;14.79;62.45;100650.53;5040388;28;20033;-80
2022/04/11 01:43:46;;;;;;;1.55;0.20;;;;;;;14.72;62.25;100647.66;5031333;28;20033;-80
2022/04/11 01:46:11;;;;;;;0.40;0.40;;;;;;;14.76;62.30;100654.81;5031378;28;20475;-79
2022/04/11 01:48:37;;;;;;;0.88;0.28;;;;;;;14.83;62.80;100651.56;5031630;28;20045;-80
2022/04/11 01:51:03;;;;;;;1.85;0.30;;;;;;;14.96;62.07;100650.25;5045091;28;20379;-80
2022/04/11 01:53:29;;;;;;;0.73;0.20;;;;;;;14.92;62.28;100656.22;5051140;28;20033;-80
2022/04/11 01:55:54;;;;;;;0.32;0.30;;;;;;;14.82;63.01;100634.00;5050490;28;20391;-80
2022/04/11 01:58:20;;;;;;;0.30;0.30;;;;;;;14.94;62.72;100650.19;5051037;28;20186;-79
2022/04/11 02:00:46;;;;;;;0.70;0.28;;;;;;;14.82;62.11;100653.31;5051223;28;20025;-80
2022/04/11 02:03:12;;;;;;;0.65;0.40;;;;;;;14.66;61.88;100654.47;5050916;28;20029;-80
2022/04/11 02:05:39;;;;;;;0.38;0.38;;;;;;;14.70;62.22;100638.84;5050846;28;20150;-79
2022/04/11 02:08:07;;;;;;;0.95;0.30;;;;;;;14.63;62.59;100649.13;5050705;28;20040;-80
2022/04/11 02:10:35;;;;;;;2.83;0.32;;;;;;;14.60;62.11;100641.13;5030436;28;20048;-79
2022/04/11 02:13:01;;;;;;;0.85;0.40;;;;;;;14.71;61.85;100649.41;5035039;28;20033;-79
2022/04/11 02:15:26;;;;;;;0.40;0.40;;;;;;;14.59;62.52;100643.72;5034640;28;20029;-80
2022/04/11 02:17:52;;;;;;;0.30;0.30;;;;;;;14.57;62.80;100633.16;5034700;28;20091;-79
2022/04/11 02:20:18;;;;;;;0.47;0.40;;;;;;;14.74;62.41;100661.75;5050910;28;20502;-79
2022/04/11 02:22:58;;;;;;;0.73;0.32;;;;;;;14.64;62.32;100663.16;5054630;28;20025;-80
2022/04/11 02:25:25;;;;;;;0.52;0.30;;;;;;;14.63;62.41;100646.50;5037345;28;20021;-80
2022/04/11 02:27:51;;;;;;;0.55;0.40;;;;;;;14.70;62.66;100652.88;5036844;28;20394;-80
2022/04/11 02:30:18;;;;;;;0.47;0.47;;;;;;;14.62;62.19;100649.06;5054642;28;20071;-79
2022/04/11 02:32:44;;;;;;;0.55;0.30;;;;;;;14.59;62.29;100655.13;5036150;28;20399;-80
2022/04/11 02:35:10;;;;;;;;;;;;;;;14.63;62.88;100659.63;5037596;28;20064;-79
2022/04/11 02:37:36;;;;;;;0.70;0.55;;;;;;;14.61;61.97;100650.81;5050147;28;20361;-79
2022/04/11 02:40:03;;;;;;;0.40;0.40;;;;;;;14.65;62.96;100657.97;5042669;28;20025;-79
2022/04/11 02:42:29;;;;;;;0.50;0.50;;;;;;;14.62;62.84;100663.09;5054534;28;20041;-79
2022/04/11 02:44:55;;;;;;;1.00;0.50;;;;;;;14.61;61.78;100653.44;5049083;28;20405;-80
2022/04/11 02:47:20;;;;;;;0.63;0.40;;;;;;;14.52;62.53;100663.59;5053909;28;20538;-79
2022/04/11 02:49:47;;;;;;;0.63;0.50;;;;;;;14.56;62.47;100677.75;5054359;28;20124;-80
2022/04/11 02:52:13;;;;;;;1.60;0.60;;;;;;;14.56;62.41;100670.78;5046705;28;20037;-78
2022/04/11 02:54:39;;;;;;;1.40;0.40;;;;;;;14.59;62.46;100696.28;5037595;28;20053;-79
2022/04/11 02:57:05;;;;;;;;;;;;;;;14.60;62.63;100705.94;5048371;28;20033;-79
2022/04/11 02:59:32;;;;;;;1.70;0.40;;;;;;;14.60;63.77;100716.44;5037839;28;19913;-79
2022/04/11 03:01:58;;;;;;;0.93;0.60;;;;;;;14.56;62.71;100717.16;5027727;28;20029;-79
2022/04/11 03:04:24;;;;;;;0.85;0.50;;;;;;;14.57;62.46;100725.13;5040961;28;20028;-79
2022/04/11 03:06:49;;;;;;;0.50;0.50;;;;;;;14.37;63.14;100711.22;5041081;28;20033;-79
2022/04/11 03:09:15;;;;;;;1.90;0.50;;;;;;;14.48;62.63;100727.38;5033703;28;20056;-79
2022/04/11 03:11:41;;;;;;;0.43;0.30;;;;;;;14.52;62.10;100737.16;5044886;28;20044;-79
2022/04/11 03:14:06;;;;;;;0.40;0.40;;;;;;;14.54;62.58;100726.69;5033911;28;20022;-77
2022/04/11 03:16:32;;;;;;;0.47;0.40;;;;;;;14.42;62.14;100735.91;5042254;28;20037;-79
2022/04/11 03:18:58;;;;;;;0.50;0.32;;;;;;;14.44;62.75;100733.34;5031936;28;20057;-78
2022/04/11 03:21:23;;;;;;;0.38;0.38;;;;;;;14.42;61.98;100728.03;4999737;28;20099;-77
2022/04/11 03:23:49;;;;;;;1.02;0.47;;;;;;;14.46;62.41;100740.44;5027326;28;20434;-78
2022/04/11 03:26:15;;;;;;;0.60;0.45;;;;;;;14.49;62.55;100754.53;5033424;28;20494;-79
2022/04/11 03:28:40;;;;;;;0.50;0.50;;;;;;;14.38;63.33;100736.63;5033426;28;20029;-79
2022/04/11 03:31:06;;;;;;;1.08;0.60;;;;;;;14.35;63.63;100752.28;5033580;28;20140;-77
2022/04/11 03:33:32;;;;;;;1.42;0.50;;;;;;;14.23;61.97;100736.06;5033260;28;20486;-79
2022/04/11 03:35:57;;;;;;;1.48;0.50;;;;;;;14.27;62.39;100752.84;5033168;28;20489;-79
2022/04/11 03:38:23;;;;;;;0.43;0.40;;;;;;;14.37;62.34;100753.25;5033255;28;20040;-79
2022/04/11 03:40:49;;;;;;;1.15;0.60;;;;;;;14.27;62.64;100750.22;5033438;28;20437;-79
2022/04/11 03:43:14;;;;;;;0.93;0.82;;;;;;;14.27;62.60;100776.47;5033293;28;20021;-79
2022/04/11 03:45:40;;;;;;;1.08;0.98;;;;;;;14.28;61.70;100783.50;5033430;28;20472;-79
2022/04/11 03:48:06;;;;;;;1.70;1.48;;;;;;;14.28;62.13;100776.50;5033254;28;20033;-79
2022/04/11 03:50:31;;;;;;;2.45;1.75;;;;;;;14.24;61.82;100774.59;5033112;28;20041;-79
2022/04/11 03:52:57;;;;;;;3.38;1.60;;;;;;;14.24;62.57;100785.09;5015083;28;20401;-79
2022/04/11 03:55:23;;;;;;;2.30;1.52;;;;;;;14.13;61.74;100786.44;5033048;28;20036;-80
2022/04/11 03:57:50;;;;;;;1.85;1.52;;;;;;;14.23;62.16;100797.34;5033149;28;20082;-79
2022/04/11 04:00:16;;;;;;;1.83;1.20;;;;;;;14.25;61.89;100794.78;5033139;28;20475;-79
2022/04/11 04:02:45;;;;;;;1.40;1.20;;;;;;;14.27;62.04;100808.00;5033348;28;20106;-79
2022/04/11 04:05:11;;;;;;;1.40;1.30;;;;;;;14.27;62.04;100810.63;5032680;28;20443;-79
2022/04/11 04:07:37;;;;;;;2.38;1.13;;;;;;;14.24;61.87;100799.16;5032430;28;20060;-80
2022/04/11 04:10:06;;;;;;;1.67;1.27;;;;;;;14.14;62.00;100799.63;5032792;28;20029;-79
2022/04/11 04:12:32;;;;;;;1.10;1.00;;;;;;;14.17;61.70;100791.84;5028310;28;20553;-79
2022/04/11 04:14:57;;;;;;;1.55;1.40;;;;;;;14.11;62.04;100796.84;5032522;28;20025;-80
2022/04/11 04:17:23;;;;;;;1.20;1.10;;;;;;;14.11;61.70;100796.84;5026711;28;20056;-79
2022/04/11 04:19:49;;;;;;;1.15;1.00;;;;;;;14.14;61.94;100807.50;5036485;28;20520;-80
2022/04/11 04:22:15;;;;;;;1.35;1.15;;;;;;;14.18;62.90;100808.50;5051786;28;20021;-80
2022/04/11 04:24:41;;;;;;;1.50;1.10;;;;;;;14.20;62.23;100815.63;5052111;28;20076;-80
2022/04/11 04:27:07;;;;;;;2.05;1.42;;;;;;;14.17;62.33;100826.00;5051727;28;20024;-80
2022/04/11 04:29:34;;;;;;;1.77;1.50;;;;;;;14.13;62.12;100828.44;5052045;28;20033;-79
2022/04/11 04:32:00;;;;;;;3.83;1.75;;;;;;;14.11;62.22;100841.50;5039376;28;20478;-80
2022/04/11 04:34:25;;;;;;;2.13;1.75;;;;;;;13.94;62.25;100838.19;5028402;28;20044;-80
2022/04/11 04:36:52;;;;;;;2.40;1.77;;;;;;;13.98;62.21;100829.59;5051712;28;20036;-81
2022/04/11 04:39:18;;;;;;;1.60;1.50;;;;;;;14.01;61.82;100834.06;5052208;28;20020;-80
2022/04/11 04:41:43;;;;;;;2.13;1.75;;;;;;;14.09;61.90;100853.66;5051820;28;20036;-80
2022/04/11 04:44:09;;;;;;;1.70;1.60;;;;;;;14.15;62.25;100847.78;5051992;28;20101;-80
2022/04/11 04:46:35;;;;;;;2.75;1.83;;;;;;;14.02;61.92;100851.63;5051955;28;20033;-79
2022/04/11 04:49:02;;;;;;;1.90;1.60;;;;;;;14.03;62.14;100853.41;5051867;28;20029;-79
2022/04/11 04:51:28;;;;;;;2.95;2.22;;;;;;;14.02;61.79;100872.66;5051802;28;20031;-79
2022/04/11 04:53:54;;;;;;;3.08;2.08;;;;;;;13.98;62.58;100871.59;5051649;28;20099;-79
2022/04/11 04:56:19;;;;;;;2.45;2.08;;;;;;;14.04;62.28;100873.59;5051713;28;20051;-79
2022/04/11 04:58:45;;;;;;;3.00;2.25;;;;;;;14.04;61.86;100892.88;5051883;28;20055;-79
2022/04/11 05:01:12;;;;;;;2.55;2.10;;;;;;;13.99;61.98;100886.53;5051614;28;20521;-80
2022/04/11 05:03:37;;;;;;;2.22;2.03;;;;;;;13.88;61.76;100887.81;5050878;28;20059;-79
2022/04/11 05:06:03;;;;;;;4.30;1.98;;;;;;;13.92;61.97;100896.72;5032125;28;20061;-78
2022/04/11 05:08:29;;;;;;;3.63;2.03;;;;;;;13.99;62.80;100914.50;5035045;28;20422;-79
2022/04/11 05:10:54;;;;;;;2.60;2.25;;;;;;;13.92;61.66;100907.22;5051217;28;20494;-79
2022/04/11 05:13:22;;;;;;;2.05;1.90;;;;;;;13.91;61.90;100908.06;5030649;28;20037;-79
2022/04/11 05:15:48;;;;;;;2.65;2.08;;;;;;;13.79;61.88;100917.19;5031477;28;20022;-79
2022/04/11 05:18:14;;;;;;;3.30;2.28;;;;;;;13.87;61.65;100912.28;5031442;28;20029;-79
2022/04/11 05:20:40;;;;;;;3.30;2.10;;;;;;;13.93;61.72;100920.41;5031170;28;20111;-79
2022/04/11 05:23:05;;;;;;;;;;;;;;;14.01;62.35;100919.03;5031185;28;20104;-80
2022/04/11 05:25:31;;;;;;;2.13;2.00;;;;;;;13.91;61.93;100915.94;5013750;28;19996;-80
2022/04/11 05:27:57;;;;;;;3.70;2.50;;;;;;;13.94;62.31;100927.44;5040357;28;20031;-79
2022/04/11 05:30:22;;;;;;;2.60;2.38;;;;;;;13.93;62.07;100920.41;5051248;28;20036;-79
2022/04/11 05:32:48;;;;;;;2.90;2.53;;;;;;;13.90;62.30;100925.53;5050765;28;20021;-79
2022/04/11 05:35:14;;;;;;;3.72;3.13;;;;;;;13.84;62.38;100905.16;5030844;28;20041;-78
2022/04/11 05:37:39;;;;;;;3.47;2.67;;;;;;;13.82;62.13;100921.66;5029465;28;20435;-78
2022/04/11 05:40:08;;;;;;;3.65;2.50;;;;;;;13.84;62.00;100930.50;5030054;28;20037;-78
2022/04/11 05:42:35;;;;;;;4.30;2.60;;;;;;;13.91;61.92;100922.06;5031839;28;20434;-78
2022/04/11 05:45:00;;;;;;;3.38;2.40;;;;;;;13.89;62.02;100930.72;5033854;28;20462;-80
2022/04/11 05:47:26;;;;;;;3.10;2.80;;;;;;;13.84;61.75;100931.44;5017083;28;20034;-83
2022/04/11 05:49:51;;;;;;;2.50;2.28;;;;;;;13.81;61.93;100930.38;5017028;28;20051;-82
2022/04/11 05:52:18;;;;;;;5.03;2.72;;;;;;;13.87;62.61;100941.16;5051280;28;20510;-82
2022/04/11 05:54:44;;;;;;;3.20;2.90;;;;;;;13.82;62.02;100934.78;5045349;28;20021;-81
2022/04/11 05:57:10;;;;;;;2.75;2.47;;;;;;;13.81;62.24;100938.25;5044941;28;20477;-82
2022/04/11 05:59:36;;;;;;;2.60;2.40;;;;;;;13.77;62.56;100936.31;5045040;28;20036;-82
2022/04/11 06:02:02;;;;;;;3.15;2.35;;;;;;;13.65;62.53;100934.03;5030818;28;20032;-83
2022/04/11 06:04:27;;;;;;;3.47;2.70;;;;;;;13.57;62.19;100909.22;5035033;28;20064;-83
2022/04/11 06:06:53;;;;;;;5.05;2.85;;;;;;;13.67;62.69;100921.88;5016624;28;20108;-83
2022/04/11 06:09:19;;;;;;;3.10;2.80;;;;;;;13.72;62.19;100937.88;5052338;28;20119;-82
2022/04/11 06:11:44;;;;;;;3.03;2.60;;;;;;;13.80;62.25;100955.75;5054247;28;20470;-83
2022/04/11 06:14:10;;;;;;;4.70;2.72;;;;;;;13.69;62.29;100951.72;5053010;28;20037;-83
2022/04/11 06:16:36;;;;;;;4.00;2.88;;;;;;;13.62;62.17;100941.78;5054179;28;20478;-82
2022/04/11 06:19:02;;;;;;;3.60;2.88;;;;;;;13.63;62.14;100948.81;5036269;28;20486;-81
2022/04/11 06:21:27;;;;;;;3.35;2.85;;;;;;;13.43;62.49;100948.84;5035597;28;20061;-82
2022/04/11 06:23:53;;;;;;;4.30;3.00;;;;;;;13.44;62.45;100937.53;5036026;28;20032;-82
2022/04/11 06:26:19;;;;;;;3.75;2.83;;;;;;;13.63;62.00;100954.06;5035514;28;20032;-82
2022/04/11 06:28:44;;;;;;;4.63;2.97;;;;;;;13.41;62.20;100932.13;5053357;28;20406;-82
2022/04/11 06:31:10;;;;;;;3.28;2.97;;;;;;;13.46;62.56;100961.19;5053666;28;20414;-81
2022/04/11 06:33:37;;;;;;;3.33;3.00;;;;;;;13.47;62.41;100951.63;5048271;28;20029;-81
2022/04/11 06:36:03;;;;;;;5.30;3.35;;;;;;;13.61;62.17;100953.13;5032175;28;20466;-81
2022/04/11 06:38:28;;;;;;;;;;;;;;;13.53;62.32;100958.03;5032875;28;20033;-81
2022/04/11 06:40:55;;;;;;;4.38;3.33;;;;;;;13.36;62.15;100935.41;5033473;28;20317;-82
2022/04/11 06:43:21;;;;;;;5.43;3.35;;;;;;;13.46;61.98;100944.56;5033265;28;20033;-82
2022/04/11 06:45:46;;;;;;;4.13;3.72;;;;;;;13.49;62.27;100961.34;5033518;28;20032;-83
2022/04/11 06:48:12;;;;;;;3.70;3.30;;;;;;;13.35;62.27;100931.84;5032138;28;20030;-81
2022/04/11 06:50:37;;;;;;;4.13;3.50;;;;;;;13.32;62.45;100939.59;5033102;28;20312;-83
2022/04/11 06:53:03;;;;;;;4.63;3.15;;;;;;;13.32;62.65;100955.34;5033284;28;20354;-81
2022/04/11 06:55:28;;;;;;;4.60;3.47;;;;;;;13.35;62.46;100952.84;5032568;28;20075;-83
2022/04/11 06:57:54;;;;;;;7.13;4.07;;;;;;;13.12;62.34;100929.88;5033113;28;20494;-82
2022/04/11 07:00:20;;;;;;;5.32;4.32;;;;;;;13.23;62.67;100949.63;5032980;28;20025;-81
2022/04/11 07:02:45;;;;;;;4.88;4.10;;;;;;;13.07;62.56;100928.78;5033238;28;20025;-81
2022/04/11 07:05:11;;;;;;;6.32;4.15;;;;;;;13.15;62.46;100961.50;5031581;28;20025;-83
2022/04/11 07:07:39;;;;;;;6.20;4.20;;;;;;;13.14;62.49;100978.94;5032979;28;20078;-82
2022/04/11 07:10:05;;;;;;;5.68;4.38;;;;;;;13.13;62.34;100992.00;5032857;28;20529;-82
2022/04/11 07:12:31;;;;;;;;;;;;;;;13.24;62.52;100994.28;5033746;28;20030;-82
2022/04/11 07:15:03;;;;;;;4.85;3.80;;;;;;;13.25;62.29;100995.19;5032923;28;19913;-82
2022/04/11 07:17:29;;;;;;;4.85;4.03;;;;;;;13.15;62.46;100990.34;5032727;28;20150;-82
2022/04/11 07:19:54;;;;;;;8.38;4.20;;;;;;;13.14;62.84;101014.75;5036999;28;20140;-83
2022/04/11 07:22:23;;;;;;;5.60;4.07;;;;;;;13.19;62.25;101018.50;5051390;28;20490;-83
2022/04/11 07:24:49;;;;;;;5.25;4.20;;;;;;;13.24;62.53;101022.22;5052523;28;20086;-82
2022/04/11 07:27:14;;;;;;;6.35;4.35;;;;;;;13.14;62.02;101009.50;5051424;28;20021;-82
2022/04/11 07:29:40;;;;;;;4.78;3.70;;;;;;;13.23;61.85;101042.31;5052520;28;20033;-82
2022/04/11 07:32:06;;;;;;;5.57;3.90;;;;;;;12.98;62.05;101000.91;5051256;28;20035;-82
2022/04/11 07:34:32;;;;;;;4.72;3.58;;;;;;;13.09;62.27;101011.03;5041928;28;20119;-83
2022/04/11 07:36:57;;;;;;;5.57;3.65;;;;;;;13.09;62.55;101032.88;5052370;28;20115;-81
2022/04/11 07:39:26;;;;;;;6.32;4.03;;;;;;;13.11;62.58;101041.72;5052148;28;20517;-82
2022/04/11 07:41:54;;;;;;;5.25;3.90;;;;;;;13.10;62.17;101029.47;5034681;28;20464;-82
2022/04/11 07:44:20;;;;;;;5.57;3.67;;;;;;;13.19;62.09;101055.22;5034354;28;20035;-83
2022/04/11 07:46:46;;;;;;;4.35;3.60;;;;;;;13.10;62.35;101026.84;5034354;28;20104;-82
2022/04/11 07:49:11;;;;;;;5.15;3.70;;;;;;;13.17;62.81;101052.50;5051924;28;20029;-82
2022/04/11 07:51:37;;;;;;;6.03;3.50;;;;;;;13.13;62.05;101036.56;5051937;28;20032;-81
2022/04/11 07:54:03;;;;;;;4.88;3.83;;;;;;;13.26;62.20;101067.78;5052084;28;20490;-82
2022/04/11 07:56:31;;;;;;;4.97;3.38;;;;;;;13.01;62.49;101037.75;5052061;28;20064;-82
2022/04/11 07:58:57;;;;;;;6.45;3.78;;;;;;;13.00;62.33;101014.09;5052058;28;20029;-81
2022/04/11 08:01:24;;;;;;;4.57;3.47;;;;;;;13.21;62.05;101050.94;5033956;28;20387;-83
2022/04/11 08:03:50;;;;;;;4.57;3.55;;;;;;;13.24;62.55;101048.44;5051348;28;20329;-81
2022/04/11 08:06:16;;;;;;;5.95;3.88;;;;;;;13.11;61.86;101040.84;5033046;28;20033;-81
2022/04/11 08:08:44;;;;;;;5.10;3.25;;;;;;;13.04;61.91;101045.78;5051571;28;20025;-82
2022/04/11 08:11:16;;;;;;;4.03;3.38;;;;;;;13.24;62.25;101057.22;5034151;28;20024;-82
2022/04/11 08:13:42;;;;;;;6.22;3.88;;;;;;;13.13;61.85;101073.28;5033566;28;20029;-82
2022/04/11 08:16:08;;;;;;;4.60;3.67;;;;;;;13.24;61.93;101078.19;5051236;28;20502;-83
2022/04/11 08:18:34;;;;;;;4.75;3.70;;;;;;;13.19;62.05;101084.06;5050992;28;20037;-82
2022/04/11 08:21:01;;;;;;;5.97;3.83;;;;;;;13.06;62.22;101060.66;5050982;28;20537;-81
2022/04/11 08:23:27;;;;;;;10.05;4.10;;;;;;;13.17;61.88;101080.47;5051414;28;20667;-81
2022/04/11 08:25:53;;;;;;;4.78;3.53;;;;;;;13.03;62.16;101057.06;5033370;28;20052;-82
2022/04/11 08:28:20;;;;;;;4.72;3.65;;;;;;;13.12;62.15;101063.59;5033668;28;20510;-82
2022/04/11 08:30:46;;;;;;;8.05;3.55;;;;;;;13.15;62.45;101089.97;5051041;28;20083;-82
2022/04/11 08:33:11;;;;;;;4.43;3.67;;;;;;;13.18;62.23;101096.25;5031949;28;20082;-83
2022/04/11 08:35:38;;;;;;;4.68;3.53;;;;;;;13.06;62.44;101090.44;5031091;28;20239;-82
2022/04/11 08:38:03;;;;;;;4.40;3.28;;;;;;;13.13;62.26;101089.00;5031172;28;20104;-82
2022/04/11 08:40:30;;;;;;;5.20;3.45;;;;;;;13.13;62.48;101095.13;5031145;28;20113;-82
2022/04/11 08:42:55;;;;;;;;;;;;;;;13.21;62.28;101090.28;5031408;28;20025;-82
2022/04/11 08:45:22;;;;;;;4.30;3.25;;;;;;;13.07;62.23;101104.44;5029910;28;20465;-82
2022/04/11 08:47:50;;;;;;;4.78;3.35;;;;;;;13.02;62.16;101070.13;5031021;28;20053;-82
2022/04/11 08:50:16;;;;;;;5.50;3.58;;;;;;;13.07;62.23;101109.69;5031122;28;20018;-82
2022/04/11 08:52:43;;;;;;;6.30;3.38;;;;;;;13.11;62.62;101109.91;5031166;28;20056;-81
2022/04/11 08:55:09;;;;;;;4.63;3.45;;;;;;;13.00;62.32;101093.63;5031126;28;20028;-82
2022/04/11 08:57:36;;;;;;;5.05;3.30;;;;;;;13.11;62.62;101111.63;5031123;28;20601;-81
2022/04/11 09:00:12;;;;;;;5.30;3.33;;;;;;;13.07;62.31;101110.56;5030837;28;20112;-81
2022/04/11 09:02:39;;;;;;;7.28;4.25;;;;;;;13.06;62.67;101119.28;5029881;28;20438;-81
2022/04/11 09:05:05;;;;;;;5.50;3.72;;;;;;;13.05;62.23;101078.13;5030883;28;20388;-82
2022/04/11 09:07:51;;;;;;;;;;;;;;;13.09;62.44;101126.38;5030269;28;20025;-81
2022/04/11 09:10:21;;;;;;;8.60;4.78;;;;;;;12.99;62.67;101118.03;5030486;28;19909;-80
2022/04/11 09:12:49;;;;;;;6.45;4.25;;;;;;;13.03;62.65;101121.72;5030499;28;20580;-81
2022/04/11 09:15:15;;;;;;;7.93;4.65;;;;;;;12.90;63.02;101114.09;5030812;28;20644;-81
2022/04/11 09:17:45;;;;;;;8.68;4.38;;;;;;;12.99;62.26;101102.31;5029446;28;20033;-81
2022/04/11 09:20:21;;;;;;;8.27;4.22;;;;;;;12.77;63.11;101117.81;5038304;28;20052;-81
2022/04/11 09:22:47;;;;;;;7.00;4.03;;;;;;;12.86;62.55;101112.13;5049402;28;20063;-82
2022/04/11 09:25:14;;;;;;;6.72;4.30;;;;;;;12.97;62.30;101119.69;5049344;28;20021;-81
2022/04/11 09:27:40;;;;;;;6.88;4.35;;;;;;;13.00;62.37;101126.84;5049282;28;20134;-82
2022/04/11 09:30:27;;;;;;;8.02;4.65;;;;;;;13.02;62.22;101119.94;5050571;28;20041;-82
2022/04/11 09:33:14;;;;;;;7.68;4.43;;;;;;;12.94;62.53;101108.16;5049420;28;20036;-82
2022/04/11 09:35:47;;;;;;;;;;;;;;;13.03;62.08;101129.59;5030996;28;20423;-83
2022/04/11 09:38:17;;;;;;;4.88;3.63;;;;;;;12.95;62.80;101131.84;5030199;28;19913;-82
2022/04/11 09:40:49;;;;;;;4.88;3.47;;;;;;;12.82;62.30;101105.81;5030307;28;20418;-82
2022/04/11 09:43:23;;;;;;;4.93;3.70;;;;;;;12.82;62.15;101108.44;5030498;28;20079;-82
2022/04/11 09:45:51;;;;;;;7.15;3.97;;;;;;;12.97;62.56;101148.53;5013225;28;20479;-81
2022/04/11 09:48:28;;;;;;;9.55;4.30;;;;;;;12.97;62.38;101145.00;5028991;28;20034;-82
2022/04/11 09:50:55;;;;;;;5.18;3.83;;;;;;;12.86;62.11;101130.47;5012745;28;20052;-82
2022/04/11 09:53:22;;;;;;;6.88;3.97;;;;;;;12.87;62.75;101142.75;5030385;28;20475;-82
2022/04/11 09:55:52;;;;;;;5.10;3.47;;;;;;;12.87;62.80;101140.13;5012706;28;20080;-82
2022/04/11 09:58:19;;;;;;;6.25;3.72;;;;;;;12.75;62.73;101122.06;5030735;28;20113;-82
2022/04/11 10:00:45;;;;;;;6.03;3.85;;;;;;;12.82;62.55;101147.75;5030182;28;20056;-82
2022/04/11 10:03:11;;;;;;;7.07;3.80;;;;;;;12.73;62.29;101132.47;5012651;28;20038;-83
2022/04/11 10:05:39;;;;;;;5.65;3.60;;;;;;;12.92;62.14;101142.16;5030161;28;20052;-82
2022/04/11 10:08:09;;;;;;;7.55;4.15;;;;;;;12.88;62.55;101150.69;5012729;28;20060;-82
2022/04/11 10:10:38;;;;;;;5.32;3.58;;;;;;;12.85;62.65;101155.78;5029084;28;20044;-82
2022/04/11 10:13:15;;;;;;;6.07;3.75;;;;;;;12.91;62.40;101148.25;5013090;28;20639;-82
2022/04/11 10:15:41;;;;;;;;;;;;;;;12.96;62.25;101161.56;5030632;28;20121;-82
2022/04/11 10:18:08;;;;;;;5.32;3.33;;;;;;;12.86;62.81;101157.56;5012417;28;20401;-80
2022/04/11 10:20:41;;;;;;;5.13;3.60;;;;;;;12.86;62.75;101160.19;5029458;28;20049;-80
2022/04/11 10:23:28;;;;;;;5.97;3.70;;;;;;;12.84;62.85;101153.97;5012137;28;20025;-80
2022/04/11 10:25:56;;;;;;;5.00;3.30;;;;;;;12.76;63.01;101168.41;5029760;28;20025;-80
2022/04/11 10:28:23;;;;;;;6.05;3.78;;;;;;;12.76;62.96;101158.84;5012048;28;20034;-80
2022/04/11 10:31:09;;;;;;;4.90;3.13;;;;;;;12.81;63.16;101172.19;5014654;28;20033;-79
2022/04/11 10:33:43;;;;;;;5.45;3.70;;;;;;;12.78;62.31;101170.31;5033281;28;20018;-79
2022/04/11 10:36:30;;;;;;;5.45;3.60;;;;;;;12.79;62.90;101179.97;5032058;28;20095;-80
2022/04/11 10:39:14;;;;;;;6.53;3.53;;;;;;;12.75;63.08;101191.09;5033213;28;20026;-80
2022/04/11 10:41:54;;;;;;;5.57;3.75;;;;;;;12.77;62.93;101180.72;5033084;28;20033;-80
2022/04/11 10:44:33;;;;;;;4.05;3.33;;;;;;;12.79;63.19;101182.56;5033119;28;20564;-80
2022/04/11 10:47:17;;;;;;;6.40;3.40;;;;;;;12.80;63.34;101183.47;5031692;28;20026;-80
2022/04/11 10:49:48;;;;;;;7.50;3.80;;;;;;;12.79;62.42;101184.31;5032996;28;20144;-80
2022/04/11 10:52:32;;;;;;;4.43;3.25;;;;;;;12.80;63.05;101191.31;5033214;28;20109;-80
2022/04/11 10:55:05;;;;;;;5.97;3.22;;;;;;;12.81;63.25;101185.28;5033033;28;20586;-80
2022/04/11 10:57:41;;;;;;;5.05;3.10;;;;;;;12.74;63.22;101185.78;5032761;28;20041;-80
2022/04/11 11:00:19;;;;;;;4.28;3.22;;;;;;;12.79;62.86;101186.94;5032757;28;20064;-80
2022/04/11 11:05:30;;;;;;;3.97;2.92;;;;;;;12.81;62.34;101198.38;5041371;28;20039;-81
2022/04/11 11:08:11;;;;;;;5.32;3.17;;;;;;;12.82;62.20;101215.91;5033844;28;20036;-81
2022/04/11 11:10:42;;;;;;;5.05;3.20;;;;;;;12.76;62.77;101221.75;5042296;28;20111;-81
2022/04/11 11:13:39;;;;;;;7.82;2.85;;;;;;;12.73;62.99;101213.69;5052969;28;20053;-81
2022/04/11 11:16:07;;;;;;;5.32;3.25;;;;;;;12.71;62.58;101217.97;5052508;28;20036;-81
2022/04/11 11:21:37;;;;;;;4.90;2.78;;;;;;;12.66;61.88;101226.38;5052580;28;20118;-80
2022/04/11 11:26:45;;;;;;;5.22;2.78;;;;;;;12.65;62.68;101225.50;5032363;28;20025;-81
2022/04/11 11:29:15;;;;;;;5.78;3.17;;;;;;;12.64;62.54;101234.19;5032864;28;20581;-80
2022/04/11 11:31:41;;;;;;;5.28;3.00;;;;;;;12.68;63.29;101223.06;5029911;28;20043;-81
2022/04/11 11:34:11;;;;;;;6.95;3.03;;;;;;;12.77;62.40;101218.28;5052617;28;20017;-85
2022/04/11 11:36:37;;;;;;;4.80;2.80;;;;;;;12.61;60.81;101206.13;5052845;28;20036;-85